createdAt,value
2022-11-23T00:01:58.598Z,100.00
2022-11-23T00:04:46.545Z,100.00
2022-11-23T00:07:34.725Z,100.00
2022-11-23T00:10:23.009Z,100.00
2022-11-23T00:13:12.343Z,100.00
2022-11-23T00:16:00.260Z,100.00
2022-11-23T00:18:48.925Z,100.00
2022-11-23T00:21:36.924Z,100.00
2022-11-23T00:24:24.881Z,100.00
2022-11-23T00:27:12.925Z,100.00
2022-11-23T00:30:02.161Z,100.00
2022-11-23T00:32:50.538Z,100.00
2022-11-23T00:35:38.483Z,100.00
2022-11-23T00:38:26.399Z,100.00
2022-11-23T00:41:16.195Z,100.00
2022-11-23T00:44:04.509Z,100.00
2022-11-23T00:46:53.805Z,100.00
2022-11-23T00:49:41.781Z,100.00
2022-11-23T00:52:29.858Z,100.00
2022-11-23T00:55:17.917Z,100.00
2022-11-23T00:58:05.966Z,100.00
2022-11-23T01:01:01.798Z,100.00
2022-11-23T01:03:54.341Z,100.00
2022-11-23T01:06:42.540Z,100.00
2022-11-23T01:09:30.719Z,100.00
2022-11-23T01:12:18.738Z,100.00
2022-11-23T01:15:09.847Z,100.00
2022-11-23T01:17:57.791Z,100.00
2022-11-23T01:20:47.108Z,100.00
2022-11-23T01:23:35.161Z,100.00
2022-11-23T01:26:25.026Z,100.00
2022-11-23T01:29:13.556Z,100.00
2022-11-23T01:32:01.606Z,100.00
2022-11-23T01:34:49.571Z,100.00
2022-11-23T01:37:38.839Z,100.00
2022-11-23T01:40:26.791Z,100.00
2022-11-23T01:43:17.003Z,100.00
2022-11-23T01:46:05.548Z,100.00
2022-11-23T01:48:58.622Z,100.00
2022-11-23T01:51:51.820Z,100.00
2022-11-23T01:54:47.522Z,100.00
2022-11-23T01:57:40.163Z,100.00
2022-11-23T02:00:29.265Z,100.00
2022-11-23T02:03:18.320Z,100.00
2022-11-23T02:06:10.893Z,100.00
2022-11-23T02:09:01.447Z,100.00
2022-11-23T02:11:50.747Z,100.00
2022-11-23T02:14:39.362Z,100.00
2022-11-23T02:17:27.293Z,100.00
2022-11-23T02:20:19.303Z,100.00
2022-11-23T02:23:20.996Z,100.00
2022-11-23T02:26:14.370Z,100.00
2022-11-23T02:29:07.107Z,100.00
2022-11-23T02:31:55.576Z,100.00
2022-11-23T02:34:45.801Z,100.00
2022-11-23T02:37:34.040Z,100.00
2022-11-23T02:40:28.862Z,100.00
2022-11-23T02:43:18.194Z,100.00
2022-11-23T02:46:07.773Z,100.00
2022-11-23T02:48:55.744Z,100.00
2022-11-23T02:51:43.668Z,100.00
2022-11-23T02:54:31.803Z,100.00
2022-11-23T02:57:19.878Z,100.00
2022-11-23T03:00:11.080Z,100.00
2022-11-23T03:03:01.231Z,100.00
2022-11-23T03:05:49.338Z,100.00
2022-11-23T03:08:37.289Z,100.00
2022-11-23T03:11:25.277Z,100.00
2022-11-23T03:14:13.298Z,100.00
2022-11-23T03:17:12.552Z,100.00
2022-11-23T03:20:02.713Z,100.00
2022-11-23T03:22:56.812Z,100.00
2022-11-23T03:25:45.849Z,100.00
2022-11-23T03:28:35.990Z,100.00
2022-11-23T03:31:24.549Z,100.00
2022-11-23T03:34:14.105Z,100.00
2022-11-23T03:37:02.097Z,100.00
2022-11-23T03:39:50.092Z,100.00
2022-11-23T03:43:16.306Z,100.00
2022-11-23T03:46:04.253Z,100.00
2022-11-23T03:48:52.327Z,100.00
2022-11-23T03:51:43.446Z,100.00
2022-11-23T03:54:31.439Z,100.00
2022-11-23T03:57:20.143Z,100.00
2022-11-23T04:00:09.962Z,100.00
2022-11-23T04:03:01.209Z,100.00
2022-11-23T04:06:07.987Z,100.00
2022-11-23T04:09:15.417Z,100.00
2022-11-23T04:12:13.938Z,100.00
2022-11-23T04:15:01.879Z,100.00
2022-11-23T04:17:50.366Z,100.00
2022-11-23T04:20:38.679Z,100.00
2022-11-23T04:23:27.106Z,100.00
2022-11-23T04:26:16.681Z,100.00
2022-11-23T04:29:07.181Z,100.00
2022-11-23T04:31:57.206Z,100.00
2022-11-23T04:34:45.166Z,100.00
2022-11-23T04:37:34.772Z,100.00
2022-11-23T04:40:23.628Z,100.00
2022-11-23T04:43:24.779Z,100.00
2022-11-23T04:46:13.210Z,100.00
2022-11-23T04:49:01.349Z,100.00
2022-11-23T04:51:49.431Z,100.00
2022-11-23T04:54:39.922Z,100.00
2022-11-23T04:57:29.803Z,100.00
2022-11-23T05:00:20.207Z,100.00
2022-11-23T05:03:09.352Z,100.00
2022-11-23T05:06:00.210Z,100.00
2022-11-23T05:08:55.117Z,100.00
2022-11-23T05:12:08.853Z,100.00
2022-11-23T05:14:57.547Z,100.00
2022-11-23T05:17:58.963Z,100.00
2022-11-23T05:20:47.601Z,100.00
2022-11-23T05:23:37.240Z,100.00
2022-11-23T05:26:25.495Z,100.00
2022-11-23T05:29:14.274Z,100.00
2022-11-23T05:32:02.302Z,100.00
2022-11-23T05:34:51.627Z,100.00
2022-11-23T05:37:40.327Z,100.00
2022-11-23T05:40:31.776Z,100.00
2022-11-23T05:43:23.805Z,100.00
2022-11-23T05:46:12.001Z,100.00
2022-11-23T05:49:00.538Z,100.00
2022-11-23T05:51:54.102Z,100.00
2022-11-23T05:54:42.420Z,100.00
2022-11-23T05:57:33.632Z,100.00
2022-11-23T06:00:21.948Z,100.00
2022-11-23T06:03:19.410Z,100.00
2022-11-23T06:06:08.142Z,100.00
2022-11-23T06:09:02.902Z,100.00
2022-11-23T06:11:52.066Z,100.00
2022-11-23T06:14:41.758Z,100.00
2022-11-23T06:17:29.851Z,100.00
2022-11-23T06:20:23.544Z,100.00
2022-11-23T06:23:18.375Z,100.00
2022-11-23T06:26:08.431Z,100.00
2022-11-23T06:28:56.881Z,100.00
2022-11-23T06:31:45.644Z,100.00
2022-11-23T06:34:34.258Z,100.00
2022-11-23T06:37:22.486Z,100.00
2022-11-23T06:40:13.866Z,100.00
2022-11-23T06:43:04.199Z,100.00
2022-11-23T06:45:59.851Z,100.00
2022-11-23T06:48:51.228Z,100.00
2022-11-23T06:51:39.312Z,100.00
2022-11-23T06:54:27.620Z,100.00
2022-11-23T06:57:16.984Z,100.00
2022-11-23T07:00:08.012Z,100.00
2022-11-23T07:03:00.453Z,100.00
2022-11-23T07:05:31.200Z,100.00
2022-11-23T07:07:59.088Z,100.00
2022-11-23T07:10:28.210Z,100.00
2022-11-23T07:13:05.317Z,100.00
2022-11-23T07:15:34.952Z,100.00
2022-11-23T07:18:04.160Z,100.00
2022-11-23T07:20:33.068Z,100.00
2022-11-23T07:23:02.083Z,100.00
2022-11-23T07:25:30.140Z,100.00
2022-11-23T07:27:58.340Z,100.00
2022-11-23T07:30:29.505Z,100.00
2022-11-23T07:33:02.243Z,100.00
2022-11-23T07:35:31.709Z,100.00
2022-11-23T07:37:59.842Z,100.00
2022-11-23T07:40:28.174Z,100.00
2022-11-23T07:43:00.741Z,100.00
2022-11-23T07:45:28.629Z,100.00
2022-11-23T07:48:02.954Z,100.00
2022-11-23T07:50:31.449Z,100.00
2022-11-23T07:52:59.283Z,100.00
2022-11-23T07:55:28.401Z,100.00
2022-11-23T07:57:56.324Z,100.00
2022-11-23T08:00:24.992Z,100.00
2022-11-23T08:03:25.721Z,100.00
2022-11-23T08:05:42.214Z,100.00
2022-11-23T08:08:10.062Z,100.00
2022-11-23T08:10:43.627Z,100.00
2022-11-23T08:13:13.873Z,100.00
2022-11-23T08:15:41.544Z,100.00
2022-11-23T08:18:10.584Z,100.00
2022-11-23T08:20:38.191Z,100.00
2022-11-23T08:23:07.219Z,100.00
2022-11-23T08:25:34.849Z,100.00
2022-11-23T08:28:04.344Z,100.00
2022-11-23T08:30:33.453Z,100.00
2022-11-23T08:33:04.130Z,100.00
2022-11-23T08:35:31.822Z,100.00
2022-11-23T08:37:59.478Z,100.00
2022-11-23T08:40:28.667Z,100.00
2022-11-23T08:42:56.568Z,100.00
2022-11-23T08:45:24.813Z,100.00
2022-11-23T08:47:52.991Z,99.09
2022-11-23T08:50:21.442Z,100.00
2022-11-23T08:52:49.116Z,100.00
2022-11-23T08:55:17.207Z,100.00
2022-11-23T08:57:46.269Z,100.00
2022-11-23T09:00:15.299Z,99.90
2022-11-23T09:02:42.999Z,98.08
2022-11-23T09:05:11.372Z,100.00
2022-11-23T09:07:39.273Z,100.00
2022-11-23T09:10:08.340Z,99.76
2022-11-23T09:12:35.992Z,98.07
2022-11-23T09:15:05.646Z,100.00
2022-11-23T09:17:33.367Z,96.71
2022-11-23T09:20:01.297Z,95.95
2022-11-23T09:22:29.366Z,93.04
2022-11-23T09:24:57.010Z,93.25
2022-11-23T09:27:24.931Z,92.23
2022-11-23T09:29:52.616Z,90.82
2022-11-23T09:32:21.677Z,91.68
2022-11-23T09:34:49.336Z,90.11
2022-11-23T09:37:17.030Z,89.97
2022-11-23T09:39:44.684Z,92.85
2022-11-23T09:42:46.195Z,98.04
2022-11-23T09:45:23.536Z,96.35
2022-11-23T09:48:18.163Z,91.88
2022-11-23T09:50:52.545Z,92.36
2022-11-23T09:53:23.664Z,91.15
2022-11-23T09:55:54.820Z,88.00
2022-11-23T09:58:24.150Z,89.28
2022-11-23T10:01:00.276Z,88.23
2022-11-23T10:03:33.858Z,88.67
2022-11-23T10:06:07.639Z,89.82
2022-11-23T10:08:45.677Z,87.67
2022-11-23T10:11:31.785Z,88.25
2022-11-23T10:14:12.361Z,85.90
2022-11-23T10:16:48.072Z,87.26
2022-11-23T10:19:27.854Z,90.83
2022-11-23T10:22:04.621Z,83.97
2022-11-23T10:24:38.583Z,84.26
2022-11-23T10:27:12.187Z,86.22
2022-11-23T10:29:40.254Z,85.35
2022-11-23T10:32:22.654Z,90.65
2022-11-23T10:35:00.027Z,88.03
2022-11-23T10:37:27.854Z,80.37
2022-11-23T10:39:55.507Z,84.72
2022-11-23T10:42:29.964Z,85.90
2022-11-23T10:44:59.644Z,87.70
2022-11-23T10:47:50.319Z,80.81
2022-11-23T10:50:25.599Z,82.41
2022-11-23T10:52:55.875Z,83.81
2022-11-23T10:55:27.990Z,87.86
2022-11-23T10:57:56.296Z,78.49
2022-11-23T11:00:30.332Z,82.19
2022-11-23T11:03:00.033Z,79.78
2022-11-23T11:06:14.934Z,82.49
2022-11-23T11:08:22.748Z,83.70
2022-11-23T11:10:57.833Z,81.93
2022-11-23T11:13:27.816Z,83.92
2022-11-23T11:15:57.303Z,81.04
2022-11-23T11:18:29.753Z,83.68
2022-11-23T11:21:02.655Z,82.98
2022-11-23T11:23:32.224Z,81.35
2022-11-23T11:26:17.896Z,80.96
2022-11-23T11:28:49.936Z,79.45
2022-11-23T11:31:28.413Z,80.47
2022-11-23T11:34:05.005Z,81.69
2022-11-23T11:36:41.056Z,83.17
2022-11-23T11:39:19.614Z,82.98
2022-11-23T11:41:50.916Z,81.75
2022-11-23T11:44:22.427Z,80.64
2022-11-23T11:46:57.784Z,79.24
2022-11-23T11:49:30.874Z,81.36
2022-11-23T11:52:05.973Z,77.11
2022-11-23T11:54:40.159Z,80.94
2022-11-23T11:57:17.472Z,75.46
2022-11-23T11:59:48.370Z,75.90
2022-11-23T12:02:22.808Z,75.27
2022-11-23T12:05:00.189Z,73.37
2022-11-23T12:07:32.617Z,73.04
2022-11-23T12:10:10.590Z,71.30
2022-11-23T12:12:38.470Z,70.13
2022-11-23T12:15:26.367Z,68.63
2022-11-23T12:18:14.133Z,68.75
2022-11-23T12:20:52.008Z,68.93
2022-11-23T12:23:31.268Z,66.65
2022-11-23T12:26:13.559Z,69.40
2022-11-23T12:28:58.492Z,72.14
2022-11-23T12:31:39.419Z,66.22
2022-11-23T12:34:30.316Z,67.00
2022-11-23T12:37:11.881Z,66.25
2022-11-23T12:40:11.832Z,62.48
2022-11-23T12:42:43.639Z,60.65
2022-11-23T12:45:40.145Z,60.51
2022-11-23T12:48:23.203Z,60.44
2022-11-23T12:51:00.403Z,62.42
2022-11-23T12:53:41.883Z,64.23
2022-11-23T12:56:20.513Z,65.42
2022-11-23T12:58:50.216Z,64.67
2022-11-23T13:01:26.399Z,66.52
2022-11-23T13:04:42.221Z,66.11
2022-11-23T13:07:35.947Z,64.30
2022-11-23T13:10:36.630Z,70.85
2022-11-23T13:13:20.991Z,63.11
2022-11-23T13:16:08.227Z,59.66
2022-11-23T13:18:49.570Z,61.19
2022-11-23T13:21:27.917Z,62.38
2022-11-23T13:23:55.645Z,62.10
2022-11-23T13:26:25.206Z,64.94
2022-11-23T13:28:56.727Z,66.75
2022-11-23T13:31:28.020Z,67.12
2022-11-23T13:33:57.490Z,67.02
2022-11-23T13:37:11.113Z,67.65
2022-11-23T13:40:08.065Z,67.46
2022-11-23T13:42:36.305Z,65.87
2022-11-23T13:45:29.527Z,66.12
2022-11-23T13:48:55.061Z,70.43
2022-11-23T13:51:10.275Z,67.79
2022-11-23T13:53:40.374Z,64.84
2022-11-23T13:56:24.817Z,68.71
2022-11-23T13:58:55.013Z,68.61
2022-11-23T14:02:02.549Z,66.03
2022-11-23T14:04:33.070Z,63.62
2022-11-23T14:07:04.416Z,66.95
2022-11-23T14:09:37.369Z,69.89
2022-11-23T14:12:15.796Z,66.71
2022-11-23T14:15:01.504Z,68.94
2022-11-23T14:18:11.880Z,73.76
2022-11-23T14:20:56.417Z,74.61
2022-11-23T14:24:02.217Z,74.91
2022-11-23T14:26:39.203Z,72.80
2022-11-23T14:29:27.229Z,71.43
2022-11-23T14:32:11.752Z,69.86
2022-11-23T14:34:48.163Z,68.27
2022-11-23T14:37:26.613Z,67.59
2022-11-23T14:40:06.453Z,68.44
2022-11-23T14:42:40.667Z,71.67
2022-11-23T14:45:13.227Z,74.19
2022-11-23T14:47:41.069Z,69.81
2022-11-23T14:50:22.095Z,72.14
2022-11-23T14:52:53.696Z,72.00
2022-11-23T14:55:24.390Z,70.16
2022-11-23T14:57:55.795Z,78.67
2022-11-23T15:00:31.729Z,75.04
2022-11-23T15:03:20.636Z,72.07
2022-11-23T15:05:53.959Z,76.25
2022-11-23T15:08:26.049Z,82.69
2022-11-23T15:11:02.827Z,79.67
2022-11-23T15:13:33.121Z,73.70
2022-11-23T15:16:05.048Z,75.31
2022-11-23T15:18:34.620Z,84.23
2022-11-23T15:21:05.033Z,70.96
2022-11-23T15:23:37.111Z,77.28
2022-11-23T15:26:07.512Z,85.64
2022-11-23T15:28:37.167Z,91.14
2022-11-23T15:31:19.319Z,94.80
2022-11-23T15:33:49.165Z,97.29
2022-11-23T15:36:19.554Z,99.88
2022-11-23T15:38:49.189Z,100.00
2022-11-23T15:41:18.485Z,100.00
2022-11-23T15:43:54.074Z,100.00
2022-11-23T15:46:25.617Z,100.00
2022-11-23T15:48:55.014Z,100.00
2022-11-23T15:51:27.113Z,100.00
2022-11-23T15:53:59.135Z,100.00
2022-11-23T15:56:30.980Z,100.00
2022-11-23T15:59:01.305Z,96.94
2022-11-23T16:01:29.391Z,92.36
2022-11-23T16:04:02.038Z,89.67
2022-11-23T16:06:36.432Z,88.06
2022-11-23T16:09:50.644Z,83.37
2022-11-23T16:12:25.597Z,82.86
2022-11-23T16:14:54.506Z,80.64
2022-11-23T16:17:24.547Z,79.97
2022-11-23T16:19:53.976Z,79.43
2022-11-23T16:22:28.664Z,78.63
2022-11-23T16:25:03.067Z,76.55
2022-11-23T16:27:30.888Z,78.17
2022-11-23T16:30:02.820Z,78.12
2022-11-23T16:32:32.269Z,76.59
2022-11-23T16:35:16.315Z,72.65
2022-11-23T16:37:44.361Z,74.97
2022-11-23T16:40:14.990Z,71.82
2022-11-23T16:42:42.721Z,74.05
2022-11-23T16:45:11.732Z,74.84
2022-11-23T16:47:52.824Z,72.94
2022-11-23T16:50:21.107Z,68.50
2022-11-23T16:52:48.789Z,72.03
2022-11-23T16:55:18.115Z,75.32
2022-11-23T16:57:46.729Z,73.19
2022-11-23T17:00:16.633Z,75.15
2022-11-23T17:02:44.486Z,72.23
2022-11-23T17:05:16.059Z,77.42
2022-11-23T17:07:44.082Z,82.02
2022-11-23T17:10:12.607Z,80.82
2022-11-23T17:12:46.704Z,82.96
2022-11-23T17:15:14.756Z,91.04
2022-11-23T17:17:42.461Z,100.00
2022-11-23T17:20:12.860Z,100.00
2022-11-23T17:22:40.679Z,100.00
2022-11-23T17:25:14.457Z,100.00
2022-11-23T17:27:46.088Z,100.00
2022-11-23T17:30:16.201Z,100.00
2022-11-23T17:32:43.926Z,100.00
2022-11-23T17:35:11.794Z,100.00
2022-11-23T17:37:39.503Z,100.00
2022-11-23T17:40:14.279Z,100.00
2022-11-23T17:42:41.931Z,100.00
2022-11-23T17:45:12.020Z,100.00
2022-11-23T17:47:42.296Z,100.00
2022-11-23T17:50:13.715Z,100.00
2022-11-23T17:52:44.334Z,100.00
2022-11-23T17:55:13.427Z,100.00
2022-11-23T17:57:41.681Z,100.00
2022-11-23T18:00:17.398Z,100.00
2022-11-23T18:02:45.279Z,100.00
2022-11-23T18:05:16.470Z,100.00
2022-11-23T18:07:48.877Z,100.00
2022-11-23T18:10:17.410Z,100.00
2022-11-23T18:12:45.754Z,100.00
2022-11-23T18:15:15.218Z,100.00
2022-11-23T18:17:43.165Z,100.00
2022-11-23T18:20:11.769Z,100.00
2022-11-23T18:22:39.412Z,100.00
2022-11-23T18:25:07.685Z,100.00
2022-11-23T18:27:35.345Z,100.00
2022-11-23T18:30:03.019Z,100.00
2022-11-23T18:32:32.222Z,100.00
2022-11-23T18:34:59.900Z,100.00
2022-11-23T18:37:27.544Z,100.00
2022-11-23T18:39:55.188Z,100.00
2022-11-23T18:42:23.104Z,100.00
2022-11-23T18:44:50.773Z,100.00
2022-11-23T18:47:18.424Z,100.00
2022-11-23T18:49:47.406Z,100.00
2022-11-23T18:52:15.048Z,100.00
2022-11-23T18:54:42.727Z,100.00
2022-11-23T18:57:11.902Z,100.00
2022-11-23T18:59:57.476Z,100.00
2022-11-23T19:02:26.241Z,100.00
2022-11-23T19:04:55.252Z,100.00
2022-11-23T19:07:26.858Z,100.00
2022-11-23T19:09:55.167Z,100.00
2022-11-23T19:12:22.871Z,100.00
2022-11-23T19:14:50.529Z,100.00
2022-11-23T19:17:18.215Z,100.00
2022-11-23T19:19:45.855Z,100.00
2022-11-23T19:22:14.854Z,100.00
2022-11-23T19:24:42.539Z,100.00
2022-11-23T19:27:10.136Z,100.00
2022-11-23T19:29:38.240Z,100.00
2022-11-23T19:32:06.826Z,100.00
2022-11-23T19:34:34.958Z,100.00
2022-11-23T19:37:03.037Z,100.00
2022-11-23T19:39:32.490Z,100.00
2022-11-23T19:42:00.444Z,100.00
2022-11-23T19:44:28.581Z,100.00
2022-11-23T19:46:56.774Z,100.00
2022-11-23T19:49:24.628Z,100.00
2022-11-23T19:51:54.147Z,100.00
2022-11-23T19:54:22.406Z,100.00
2022-11-23T19:56:52.121Z,100.00
2022-11-23T19:59:19.777Z,100.00
2022-11-23T20:01:47.835Z,100.00
2022-11-23T20:04:15.577Z,100.00
2022-11-23T20:06:43.697Z,100.00
2022-11-23T20:09:13.129Z,100.00
2022-11-23T20:11:41.345Z,100.00
2022-11-23T20:14:12.424Z,100.00
2022-11-23T20:16:40.338Z,100.00
2022-11-23T20:19:10.103Z,100.00
2022-11-23T20:21:39.194Z,100.00
2022-11-23T20:24:09.903Z,100.00
2022-11-23T20:26:37.882Z,100.00
2022-11-23T20:29:07.147Z,100.00
2022-11-23T20:31:36.701Z,100.00
2022-11-23T20:34:07.542Z,100.00
2022-11-23T20:36:37.996Z,100.00
2022-11-23T20:39:08.291Z,100.00
2022-11-23T20:41:37.714Z,100.00
2022-11-23T20:44:07.299Z,100.00
2022-11-23T20:49:24.521Z,100.00
2022-11-23T20:51:52.201Z,100.00
2022-11-23T20:54:19.892Z,100.00
2022-11-23T20:56:47.586Z,100.00
2022-11-23T20:59:15.425Z,100.00
2022-11-23T21:01:44.510Z,100.00
2022-11-23T21:04:32.871Z,100.00
2022-11-23T21:07:21.022Z,100.00
2022-11-23T21:10:09.525Z,100.00
2022-11-23T21:13:14.928Z,100.00
2022-11-23T21:16:06.892Z,100.00
2022-11-23T21:18:56.228Z,100.00
2022-11-23T21:21:44.127Z,100.00
2022-11-23T21:24:34.983Z,100.00
2022-11-23T21:27:28.049Z,100.00
2022-11-23T21:30:16.210Z,100.00
2022-11-23T21:33:04.272Z,100.00
2022-11-23T21:35:53.543Z,100.00
2022-11-23T21:38:41.772Z,100.00
2022-11-23T21:41:29.693Z,100.00
2022-11-23T21:44:18.832Z,100.00
2022-11-23T21:47:06.994Z,100.00
2022-11-23T21:49:54.968Z,100.00
2022-11-23T21:52:44.300Z,100.00
2022-11-23T21:55:32.749Z,100.00
2022-11-23T21:58:20.685Z,100.00
2022-11-23T22:01:10.429Z,100.00
2022-11-23T22:04:00.591Z,100.00
2022-11-23T22:06:48.505Z,100.00
2022-11-23T22:09:37.985Z,100.00
2022-11-23T22:12:26.583Z,100.00
2022-11-23T22:15:15.358Z,100.00
2022-11-23T22:18:03.265Z,100.00
2022-11-23T22:20:52.014Z,100.00
2022-11-23T22:23:40.268Z,100.00
2022-11-23T22:26:29.763Z,100.00
2022-11-23T22:29:17.718Z,100.00
2022-11-23T22:32:06.197Z,100.00
2022-11-23T22:34:54.342Z,100.00
2022-11-23T22:37:42.338Z,100.00
2022-11-23T22:40:32.680Z,100.00
2022-11-23T22:43:22.120Z,100.00
2022-11-23T22:46:12.544Z,100.00
2022-11-23T22:49:00.570Z,100.00
2022-11-23T22:51:48.653Z,100.00
2022-11-23T22:54:36.691Z,100.00
2022-11-23T22:57:24.659Z,100.00
2022-11-23T23:00:16.605Z,100.00
2022-11-23T23:03:04.693Z,100.00
2022-11-23T23:05:56.016Z,100.00
2022-11-23T23:08:44.351Z,100.00
2022-11-23T23:11:33.552Z,100.00
2022-11-23T23:14:21.435Z,100.00
2022-11-23T23:17:10.734Z,100.00
2022-11-23T23:19:58.704Z,100.00
2022-11-23T23:22:46.621Z,100.00
2022-11-23T23:25:36.093Z,100.00
2022-11-23T23:28:24.308Z,100.00
2022-11-23T23:31:16.026Z,100.00
2022-11-23T23:34:05.582Z,100.00
2022-11-23T23:36:53.689Z,100.00
2022-11-23T23:39:41.633Z,100.00
2022-11-23T23:42:29.701Z,100.00
2022-11-23T23:45:17.601Z,100.00
2022-11-23T23:48:05.750Z,100.00
2022-11-23T23:50:55.097Z,100.00
2022-11-23T23:53:43.587Z,100.00
2022-11-23T23:56:31.508Z,100.00
2022-11-23T23:59:19.631Z,100.00
